sensor_id;sensor_type;location;lat;lon;timestamp;pressure;altitude;pressure_sealevel;temperature;humidity
31225;BME280;17847;31.524;74.366;2024-01-30T00:02:25;99002.66;;;11.71;nan
31225;BME280;17847;31.524;74.366;2024-01-30T00:04:54;99011.75;;;12.11;nan
31225;BME280;17847;31.524;74.366;2024-01-30T00:07:23;99013.81;;;11.88;nan
31225;BME280;17847;31.524;74.366;2024-01-30T00:09:53;99011.75;;;11.83;nan
31225;BME280;17847;31.524;74.366;2024-01-30T00:12:23;99019.09;;;11.81;nan
31225;BME280;17847;31.524;74.366;2024-01-30T00:14:52;99027.53;;;11.70;nan
31225;BME280;17847;31.524;74.366;2024-01-30T00:17:23;99028.63;;;11.76;nan
31225;BME280;17847;31.524;74.366;2024-01-30T00:19:54;99021.41;;;11.69;nan
31225;BME280;17847;31.524;74.366;2024-01-30T00:22:23;99035.94;;;11.74;nan
31225;BME280;17847;31.524;74.366;2024-01-30T00:24:52;99038.31;;;11.68;nan
31225;BME280;17847;31.524;74.366;2024-01-30T00:27:22;99043.78;;;11.82;nan
31225;BME280;17847;31.524;74.366;2024-01-30T00:29:51;99052.13;;;11.79;nan
31225;BME280;17847;31.524;74.366;2024-01-30T00:32:20;99051.63;;;11.90;nan
31225;BME280;17847;31.524;74.366;2024-01-30T00:34:49;99049.72;;;12.11;nan
31225;BME280;17847;31.524;74.366;2024-01-30T00:37:19;99048.47;;;12.07;nan
31225;BME280;17847;31.524;74.366;2024-01-30T00:39:48;99061.06;;;11.99;nan
31225;BME280;17847;31.524;74.366;2024-01-30T00:42:18;99057.06;;;12.09;nan
31225;BME280;17847;31.524;74.366;2024-01-30T00:44:48;99050.69;;;12.04;nan
31225;BME280;17847;31.524;74.366;2024-01-30T00:47:17;99051.13;;;12.07;nan
31225;BME280;17847;31.524;74.366;2024-01-30T00:49:46;99048.16;;;11.96;nan
31225;BME280;17847;31.524;74.366;2024-01-30T00:52:15;99057.38;;;12.00;nan
31225;BME280;17847;31.524;74.366;2024-01-30T00:54:45;99058.88;;;12.09;nan
31225;BME280;17847;31.524;74.366;2024-01-30T00:57:14;99055.19;;;12.03;nan
31225;BME280;17847;31.524;74.366;2024-01-30T00:59:43;99070.66;;;12.00;nan
31225;BME280;17847;31.524;74.366;2024-01-30T01:02:12;99070.50;;;11.80;nan
31225;BME280;17847;31.524;74.366;2024-01-30T01:04:44;99077.19;;;11.97;nan
31225;BME280;17847;31.524;74.366;2024-01-30T01:07:13;99082.97;;;11.80;nan
31225;BME280;17847;31.524;74.366;2024-01-30T01:09:42;99079.59;;;11.92;nan
31225;BME280;17847;31.524;74.366;2024-01-30T01:12:11;99080.81;;;11.90;nan
31225;BME280;17847;31.524;74.366;2024-01-30T01:14:41;99092.44;;;11.89;nan
31225;BME280;17847;31.524;74.366;2024-01-30T01:17:11;99092.28;;;11.97;nan
31225;BME280;17847;31.524;74.366;2024-01-30T01:19:40;99094.38;;;12.01;nan
31225;BME280;17847;31.524;74.366;2024-01-30T01:22:10;99099.28;;;12.04;nan
31225;BME280;17847;31.524;74.366;2024-01-30T01:24:39;99108.72;;;12.07;nan
31225;BME280;17847;31.524;74.366;2024-01-30T01:27:08;99106.25;;;12.05;nan
31225;BME280;17847;31.524;74.366;2024-01-30T01:29:38;99102.00;;;12.11;nan
31225;BME280;17847;31.524;74.366;2024-01-30T01:32:07;99109.47;;;12.01;nan
31225;BME280;17847;31.524;74.366;2024-01-30T01:34:36;99112.28;;;11.93;nan
31225;BME280;17847;31.524;74.366;2024-01-30T01:37:06;99116.38;;;11.74;nan
31225;BME280;17847;31.524;74.366;2024-01-30T01:39:36;99122.38;;;11.83;nan
31225;BME280;17847;31.524;74.366;2024-01-30T01:42:05;99132.66;;;11.71;nan
31225;BME280;17847;31.524;74.366;2024-01-30T01:44:34;99121.97;;;11.64;nan
31225;BME280;17847;31.524;74.366;2024-01-30T01:47:03;99128.38;;;11.91;nan
31225;BME280;17847;31.524;74.366;2024-01-30T01:49:33;99137.47;;;11.82;nan
31225;BME280;17847;31.524;74.366;2024-01-30T01:52:02;99142.69;;;11.90;nan
31225;BME280;17847;31.524;74.366;2024-01-30T01:54:31;99143.47;;;11.91;nan
31225;BME280;17847;31.524;74.366;2024-01-30T01:57:01;99146.47;;;11.81;nan
31225;BME280;17847;31.524;74.366;2024-01-30T01:59:30;99142.91;;;11.74;nan
31225;BME280;17847;31.524;74.366;2024-01-30T02:02:00;99147.66;;;11.64;nan
31225;BME280;17847;31.524;74.366;2024-01-30T02:04:31;99146.97;;;11.55;nan
31225;BME280;17847;31.524;74.366;2024-01-30T02:07:01;99149.38;;;11.50;nan
31225;BME280;17847;31.524;74.366;2024-01-30T02:09:30;99151.13;;;11.43;nan
31225;BME280;17847;31.524;74.366;2024-01-30T02:12:00;99149.00;;;11.53;nan
31225;BME280;17847;31.524;74.366;2024-01-30T02:14:29;99148.47;;;11.43;nan
31225;BME280;17847;31.524;74.366;2024-01-30T02:16:58;99153.78;;;11.64;nan
31225;BME280;17847;31.524;74.366;2024-01-30T02:19:28;99153.63;;;11.66;nan
31225;BME280;17847;31.524;74.366;2024-01-30T02:21:57;99151.53;;;11.61;nan
31225;BME280;17847;31.524;74.366;2024-01-30T02:24:26;99159.59;;;11.53;nan
31225;BME280;17847;31.524;74.366;2024-01-30T02:26:56;99164.06;;;11.67;nan
31225;BME280;17847;31.524;74.366;2024-01-30T02:29:25;99162.56;;;11.65;nan
31225;BME280;17847;31.524;74.366;2024-01-30T02:31:54;99164.84;;;11.83;nan
31225;BME280;17847;31.524;74.366;2024-01-30T02:34:24;99177.09;;;11.84;nan
31225;BME280;17847;31.524;74.366;2024-01-30T02:36:54;99173.56;;;11.62;nan
31225;BME280;17847;31.524;74.366;2024-01-30T02:39:24;99176.66;;;11.65;nan
31225;BME280;17847;31.524;74.366;2024-01-30T02:42:09;99175.84;;;11.80;nan
31225;BME280;17847;31.524;74.366;2024-01-30T02:44:39;99180.25;;;11.73;nan
31225;BME280;17847;31.524;74.366;2024-01-30T02:47:11;99180.69;;;11.76;nan
31225;BME280;17847;31.524;74.366;2024-01-30T02:49:41;99184.81;;;11.79;nan
31225;BME280;17847;31.524;74.366;2024-01-30T02:52:11;99179.38;;;11.87;nan
31225;BME280;17847;31.524;74.366;2024-01-30T02:54:40;99188.16;;;11.87;nan
31225;BME280;17847;31.524;74.366;2024-01-30T02:57:09;99181.28;;;11.93;nan
31225;BME280;17847;31.524;74.366;2024-01-30T02:59:38;99179.06;;;11.96;nan
31225;BME280;17847;31.524;74.366;2024-01-30T03:02:10;99181.00;;;12.09;nan
31225;BME280;17847;31.524;74.366;2024-01-30T03:04:43;99171.75;;;12.26;nan
31225;BME280;17847;31.524;74.366;2024-01-30T03:07:13;99173.91;;;12.37;nan
31225;BME280;17847;31.524;74.366;2024-01-30T03:09:42;99170.97;;;12.53;nan
31225;BME280;17847;31.524;74.366;2024-01-30T03:12:12;99174.34;;;12.69;nan
31225;BME280;17847;31.524;74.366;2024-01-30T03:14:42;99184.09;;;12.89;nan
31225;BME280;17847;31.524;74.366;2024-01-30T03:17:12;99185.75;;;12.97;nan
31225;BME280;17847;31.524;74.366;2024-01-30T03:19:41;99182.91;;;13.26;nan
31225;BME280;17847;31.524;74.366;2024-01-30T03:22:11;99183.09;;;13.25;nan
31225;BME280;17847;31.524;74.366;2024-01-30T03:24:40;99191.38;;;13.49;nan
31225;BME280;17847;31.524;74.366;2024-01-30T03:27:10;99191.59;;;13.55;nan
31225;BME280;17847;31.524;74.366;2024-01-30T03:29:40;99192.09;;;13.84;nan
31225;BME280;17847;31.524;74.366;2024-01-30T03:32:09;99202.78;;;14.04;nan
31225;BME280;17847;31.524;74.366;2024-01-30T03:34:38;99201.44;;;14.41;nan
31225;BME280;17847;31.524;74.366;2024-01-30T03:37:08;99198.56;;;14.62;nan
31225;BME280;17847;31.524;74.366;2024-01-30T03:39:37;99197.50;;;14.90;nan
31225;BME280;17847;31.524;74.366;2024-01-30T03:42:07;99208.94;;;15.16;nan
31225;BME280;17847;31.524;74.366;2024-01-30T03:44:36;99197.78;;;15.33;nan
31225;BME280;17847;31.524;74.366;2024-01-30T03:47:05;99207.94;;;15.68;nan
31225;BME280;17847;31.524;74.366;2024-01-30T03:49:35;99211.38;;;15.82;nan
31225;BME280;17847;31.524;74.366;2024-01-30T03:52:04;99221.91;;;16.40;nan
31225;BME280;17847;31.524;74.366;2024-01-30T03:54:34;99217.94;;;16.74;nan
31225;BME280;17847;31.524;74.366;2024-01-30T03:57:03;99233.00;;;16.93;nan
31225;BME280;17847;31.524;74.366;2024-01-30T03:59:32;99228.88;;;17.15;nan
31225;BME280;17847;31.524;74.366;2024-01-30T04:02:02;99226.25;;;17.08;nan
31225;BME280;17847;31.524;74.366;2024-01-30T04:04:31;99227.72;;;17.04;nan
31225;BME280;17847;31.524;74.366;2024-01-30T04:07:00;99239.75;;;17.38;nan
31225;BME280;17847;31.524;74.366;2024-01-30T04:09:30;99239.50;;;17.40;nan
31225;BME280;17847;31.524;74.366;2024-01-30T04:12:00;99244.50;;;17.36;nan
31225;BME280;17847;31.524;74.366;2024-01-30T04:14:31;99237.75;;;17.34;nan
31225;BME280;17847;31.524;74.366;2024-01-30T04:17:00;99246.22;;;17.13;nan
31225;BME280;17847;31.524;74.366;2024-01-30T04:19:30;99254.00;;;17.14;nan
31225;BME280;17847;31.524;74.366;2024-01-30T04:21:59;99251.94;;;17.34;nan
31225;BME280;17847;31.524;74.366;2024-01-30T04:24:29;99249.56;;;17.63;nan
31225;BME280;17847;31.524;74.366;2024-01-30T04:26:58;99251.75;;;18.02;nan
31225;BME280;17847;31.524;74.366;2024-01-30T04:29:27;99254.84;;;17.87;nan
31225;BME280;17847;31.524;74.366;2024-01-30T04:31:57;99254.97;;;17.92;nan
31225;BME280;17847;31.524;74.366;2024-01-30T04:34:26;99252.09;;;18.06;nan
31225;BME280;17847;31.524;74.366;2024-01-30T04:36:55;99244.13;;;18.17;nan
31225;BME280;17847;31.524;74.366;2024-01-30T04:39:25;99247.47;;;18.42;nan
31225;BME280;17847;31.524;74.366;2024-01-30T04:41:54;99248.44;;;18.18;nan
31225;BME280;17847;31.524;74.366;2024-01-30T04:44:23;99240.44;;;18.30;nan
31225;BME280;17847;31.524;74.366;2024-01-30T04:46:52;99234.66;;;17.85;nan
31225;BME280;17847;31.524;74.366;2024-01-30T04:49:22;99233.56;;;18.46;nan
31225;BME280;17847;31.524;74.366;2024-01-30T04:51:51;99242.06;;;18.72;nan
31225;BME280;17847;31.524;74.366;2024-01-30T04:54:21;99240.09;;;18.91;nan
31225;BME280;17847;31.524;74.366;2024-01-30T04:56:50;99243.25;;;19.23;nan
31225;BME280;17847;31.524;74.366;2024-01-30T04:59:19;99247.00;;;19.10;nan
31225;BME280;17847;31.524;74.366;2024-01-30T05:01:48;99247.19;;;19.32;nan
31225;BME280;17847;31.524;74.366;2024-01-30T05:04:18;99247.31;;;19.49;nan
31225;BME280;17847;31.524;74.366;2024-01-30T05:06:47;99249.88;;;19.55;nan
31225;BME280;17847;31.524;74.366;2024-01-30T05:09:16;99255.66;;;19.76;nan
31225;BME280;17847;31.524;74.366;2024-01-30T05:11:45;99265.06;;;19.50;nan
31225;BME280;17847;31.524;74.366;2024-01-30T05:14:15;99275.13;;;19.54;nan
31225;BME280;17847;31.524;74.366;2024-01-30T05:16:45;99284.81;;;19.55;nan
31225;BME280;17847;31.524;74.366;2024-01-30T05:19:15;99282.03;;;19.50;nan
31225;BME280;17847;31.524;74.366;2024-01-30T05:21:46;99269.13;;;18.82;nan
31225;BME280;17847;31.524;74.366;2024-01-30T05:24:15;99272.19;;;19.21;nan
31225;BME280;17847;31.524;74.366;2024-01-30T05:26:47;99270.66;;;18.90;nan
31225;BME280;17847;31.524;74.366;2024-01-30T05:29:17;99271.56;;;18.72;nan
31225;BME280;17847;31.524;74.366;2024-01-30T05:31:46;99280.69;;;19.29;nan
31225;BME280;17847;31.524;74.366;2024-01-30T05:34:16;99284.81;;;19.32;nan
31225;BME280;17847;31.524;74.366;2024-01-30T05:36:45;99285.47;;;18.69;nan
31225;BME280;17847;31.524;74.366;2024-01-30T05:39:14;99284.44;;;18.40;nan
31225;BME280;17847;31.524;74.366;2024-01-30T05:41:43;99282.81;;;18.93;nan
31225;BME280;17847;31.524;74.366;2024-01-30T05:44:13;99284.09;;;19.13;nan
31225;BME280;17847;31.524;74.366;2024-01-30T05:46:42;99284.69;;;19.27;nan
31225;BME280;17847;31.524;74.366;2024-01-30T05:49:11;99295.31;;;19.22;nan
31225;BME280;17847;31.524;74.366;2024-01-30T05:51:40;99285.72;;;19.26;nan
31225;BME280;17847;31.524;74.366;2024-01-30T05:54:10;99271.94;;;19.34;nan
31225;BME280;17847;31.524;74.366;2024-01-30T05:56:42;99277.56;;;19.21;nan
31225;BME280;17847;31.524;74.366;2024-01-30T05:59:12;99271.38;;;19.32;nan
31225;BME280;17847;31.524;74.366;2024-01-30T06:01:47;99276.72;;;18.62;nan
31225;BME280;17847;31.524;74.366;2024-01-30T06:04:17;99269.50;;;19.33;nan
31225;BME280;17847;31.524;74.366;2024-01-30T06:06:47;99270.47;;;19.15;nan
31225;BME280;17847;31.524;74.366;2024-01-30T06:09:16;99265.88;;;19.27;nan
31225;BME280;17847;31.524;74.366;2024-01-30T06:11:45;99253.16;;;19.22;nan
31225;BME280;17847;31.524;74.366;2024-01-30T06:14:15;99247.91;;;19.51;nan
31225;BME280;17847;31.524;74.366;2024-01-30T06:16:44;99245.69;;;19.48;nan
31225;BME280;17847;31.524;74.366;2024-01-30T06:19:13;99245.84;;;19.81;nan
31225;BME280;17847;31.524;74.366;2024-01-30T06:21:43;99248.38;;;19.88;nan
31225;BME280;17847;31.524;74.366;2024-01-30T06:24:12;99241.03;;;19.83;nan
31225;BME280;17847;31.524;74.366;2024-01-30T06:26:41;99242.34;;;19.81;nan
31225;BME280;17847;31.524;74.366;2024-01-30T06:29:10;99241.00;;;19.95;nan
31225;BME280;17847;31.524;74.366;2024-01-30T06:31:41;99231.13;;;20.29;nan
31225;BME280;17847;31.524;74.366;2024-01-30T06:34:10;99236.91;;;20.66;nan
31225;BME280;17847;31.524;74.366;2024-01-30T06:36:41;99230.13;;;20.63;nan
31225;BME280;17847;31.524;74.366;2024-01-30T06:39:10;99229.47;;;21.06;nan
31225;BME280;17847;31.524;74.366;2024-01-30T06:41:39;99218.38;;;20.36;nan
31225;BME280;17847;31.524;74.366;2024-01-30T06:44:08;99206.88;;;20.40;nan
31225;BME280;17847;31.524;74.366;2024-01-30T06:46:38;99200.69;;;20.56;nan
31225;BME280;17847;31.524;74.366;2024-01-30T06:49:07;99200.28;;;20.65;nan
31225;BME280;17847;31.524;74.366;2024-01-30T06:51:36;99192.34;;;20.91;nan
31225;BME280;17847;31.524;74.366;2024-01-30T06:54:05;99182.00;;;20.05;nan
31225;BME280;17847;31.524;74.366;2024-01-30T06:56:35;99186.53;;;20.44;nan
31225;BME280;17847;31.524;74.366;2024-01-30T06:59:04;99177.22;;;20.52;nan
31225;BME280;17847;31.524;74.366;2024-01-30T07:01:35;99172.63;;;20.69;nan
31225;BME280;17847;31.524;74.366;2024-01-30T07:04:04;99170.25;;;21.11;nan
31225;BME280;17847;31.524;74.366;2024-01-30T07:06:33;99167.13;;;20.81;nan
31225;BME280;17847;31.524;74.366;2024-01-30T07:09:03;99160.56;;;21.10;nan
31225;BME280;17847;31.524;74.366;2024-01-30T07:11:32;99161.66;;;21.52;nan
31225;BME280;17847;31.524;74.366;2024-01-30T07:14:01;99154.75;;;20.80;nan
31225;BME280;17847;31.524;74.366;2024-01-30T07:16:34;99150.22;;;21.02;nan
31225;BME280;17847;31.524;74.366;2024-01-30T07:19:03;99143.63;;;21.31;nan
31225;BME280;17847;31.524;74.366;2024-01-30T07:21:32;99136.31;;;20.88;nan
31225;BME280;17847;31.524;74.366;2024-01-30T07:24:01;99131.94;;;21.04;nan
31225;BME280;17847;31.524;74.366;2024-01-30T07:26:31;99130.09;;;20.88;nan
31225;BME280;17847;31.524;74.366;2024-01-30T07:29:00;99120.25;;;21.15;nan
31225;BME280;17847;31.524;74.366;2024-01-30T07:31:29;99120.94;;;21.27;nan
31225;BME280;17847;31.524;74.366;2024-01-30T07:34:01;99119.59;;;21.51;nan
31225;BME280;17847;31.524;74.366;2024-01-30T07:36:31;99109.38;;;21.54;nan
31225;BME280;17847;31.524;74.366;2024-01-30T07:39:00;99108.09;;;21.61;nan
31225;BME280;17847;31.524;74.366;2024-01-30T07:41:29;99098.22;;;20.80;nan
31225;BME280;17847;31.524;74.366;2024-01-30T07:43:59;99090.91;;;20.97;nan
31225;BME280;17847;31.524;74.366;2024-01-30T07:46:28;99090.38;;;21.17;nan
31225;BME280;17847;31.524;74.366;2024-01-30T07:48:57;99094.16;;;21.42;nan
31225;BME280;17847;31.524;74.366;2024-01-30T07:51:27;99081.56;;;21.48;nan
31225;BME280;17847;31.524;74.366;2024-01-30T07:53:57;99082.97;;;21.56;nan
31225;BME280;17847;31.524;74.366;2024-01-30T07:56:27;99072.38;;;21.00;nan
31225;BME280;17847;31.524;74.366;2024-01-30T07:58:56;99070.50;;;21.01;nan
31225;BME280;17847;31.524;74.366;2024-01-30T08:01:25;99064.47;;;21.37;nan
31225;BME280;17847;31.524;74.366;2024-01-30T08:03:55;99064.50;;;21.42;nan
31225;BME280;17847;31.524;74.366;2024-01-30T08:06:24;99064.66;;;21.09;nan
31225;BME280;17847;31.524;74.366;2024-01-30T08:08:53;99052.63;;;20.73;nan
31225;BME280;17847;31.524;74.366;2024-01-30T08:11:23;99055.19;;;20.85;nan
31225;BME280;17847;31.524;74.366;2024-01-30T08:13:54;99051.06;;;21.21;nan
31225;BME280;17847;31.524;74.366;2024-01-30T08:16:24;99050.84;;;21.22;nan
31225;BME280;17847;31.524;74.366;2024-01-30T08:18:53;99039.44;;;21.15;nan
31225;BME280;17847;31.524;74.366;2024-01-30T08:21:25;99035.13;;;21.14;nan
31225;BME280;17847;31.524;74.366;2024-01-30T08:23:55;99029.06;;;21.07;nan
31225;BME280;17847;31.524;74.366;2024-01-30T08:26:24;99031.28;;;20.88;nan
31225;BME280;17847;31.524;74.366;2024-01-30T08:28:55;99031.03;;;20.90;nan
31225;BME280;17847;31.524;74.366;2024-01-30T08:31:24;99025.41;;;21.13;nan
31225;BME280;17847;31.524;74.366;2024-01-30T08:33:53;99022.28;;;20.78;nan
31225;BME280;17847;31.524;74.366;2024-01-30T08:36:23;99022.31;;;21.04;nan
31225;BME280;17847;31.524;74.366;2024-01-30T08:38:52;99015.50;;;20.97;nan
31225;BME280;17847;31.524;74.366;2024-01-30T08:41:25;99004.47;;;20.98;nan
31225;BME280;17847;31.524;74.366;2024-01-30T08:43:54;98995.97;;;21.06;nan
31225;BME280;17847;31.524;74.366;2024-01-30T08:46:23;98996.59;;;21.14;nan
31225;BME280;17847;31.524;74.366;2024-01-30T08:48:53;98993.75;;;21.03;nan
31225;BME280;17847;31.524;74.366;2024-01-30T08:51:22;98994.22;;;20.95;nan
31225;BME280;17847;31.524;74.366;2024-01-30T08:53:51;98991.63;;;21.05;nan
31225;BME280;17847;31.524;74.366;2024-01-30T08:56:22;98984.31;;;21.23;nan
31225;BME280;17847;31.524;74.366;2024-01-30T08:58:51;98981.44;;;21.34;nan
31225;BME280;17847;31.524;74.366;2024-01-30T09:01:21;98980.09;;;21.32;nan
31225;BME280;17847;31.524;74.366;2024-01-30T09:03:50;98973.31;;;21.29;nan
31225;BME280;17847;31.524;74.366;2024-01-30T09:06:20;98972.97;;;20.99;nan
31225;BME280;17847;31.524;74.366;2024-01-30T09:08:49;98967.91;;;20.81;nan
31225;BME280;17847;31.524;74.366;2024-01-30T09:11:18;98968.63;;;20.71;nan
31225;BME280;17847;31.524;74.366;2024-01-30T09:13:48;98952.53;;;20.54;nan
31225;BME280;17847;31.524;74.366;2024-01-30T09:16:17;98952.22;;;20.73;nan
31225;BME280;17847;31.524;74.366;2024-01-30T09:18:46;98952.63;;;20.86;nan
31225;BME280;17847;31.524;74.366;2024-01-30T09:21:15;98944.88;;;20.90;nan
31225;BME280;17847;31.524;74.366;2024-01-30T09:23:44;98945.94;;;20.89;nan
31225;BME280;17847;31.524;74.366;2024-01-30T09:26:14;98940.06;;;20.92;nan
31225;BME280;17847;31.524;74.366;2024-01-30T09:28:43;98937.53;;;20.85;nan
31225;BME280;17847;31.524;74.366;2024-01-30T09:31:13;98924.97;;;20.91;nan
31225;BME280;17847;31.524;74.366;2024-01-30T09:33:42;98929.63;;;21.00;nan
31225;BME280;17847;31.524;74.366;2024-01-30T09:36:13;98921.31;;;21.02;nan
31225;BME280;17847;31.524;74.366;2024-01-30T09:38:44;98923.28;;;21.12;nan
31225;BME280;17847;31.524;74.366;2024-01-30T09:41:13;98921.09;;;21.08;nan
31225;BME280;17847;31.524;74.366;2024-01-30T09:43:47;98922.72;;;21.10;nan
31225;BME280;17847;31.524;74.366;2024-01-30T09:46:18;98919.72;;;21.06;nan
31225;BME280;17847;31.524;74.366;2024-01-30T09:48:49;98918.69;;;21.12;nan
31225;BME280;17847;31.524;74.366;2024-01-30T09:51:20;98916.09;;;21.17;nan
31225;BME280;17847;31.524;74.366;2024-01-30T09:53:50;98916.16;;;21.00;nan
31225;BME280;17847;31.524;74.366;2024-01-30T09:56:19;98913.00;;;20.82;nan
31225;BME280;17847;31.524;74.366;2024-01-30T09:58:48;98897.38;;;20.79;nan
31225;BME280;17847;31.524;74.366;2024-01-30T10:01:19;98905.75;;;20.82;nan
31225;BME280;17847;31.524;74.366;2024-01-30T10:03:50;98902.13;;;20.72;nan
31225;BME280;17847;31.524;74.366;2024-01-30T10:06:25;98896.34;;;20.85;nan
31225;BME280;17847;31.524;74.366;2024-01-30T10:08:54;98897.03;;;20.70;nan
31225;BME280;17847;31.524;74.366;2024-01-30T10:11:23;98898.22;;;20.57;nan
31225;BME280;17847;31.524;74.366;2024-01-30T10:13:56;98899.06;;;20.63;nan
31225;BME280;17847;31.524;74.366;2024-01-30T10:16:25;98894.16;;;20.55;nan
31225;BME280;17847;31.524;74.366;2024-01-30T10:18:54;98895.59;;;20.41;nan
31225;BME280;17847;31.524;74.366;2024-01-30T10:21:24;98894.44;;;20.58;nan
31225;BME280;17847;31.524;74.366;2024-01-30T10:23:53;98895.88;;;20.39;nan
31225;BME280;17847;31.524;74.366;2024-01-30T10:26:22;98904.50;;;20.25;nan
31225;BME280;17847;31.524;74.366;2024-01-30T10:28:52;98901.81;;;20.25;nan
31225;BME280;17847;31.524;74.366;2024-01-30T10:31:21;98897.81;;;20.27;nan
31225;BME280;17847;31.524;74.366;2024-01-30T10:33:51;98907.78;;;20.27;nan
31225;BME280;17847;31.524;74.366;2024-01-30T10:36:29;98908.03;;;20.25;nan
31225;BME280;17847;31.524;74.366;2024-01-30T10:39:00;98904.66;;;20.13;nan
31225;BME280;17847;31.524;74.366;2024-01-30T10:41:31;98901.69;;;20.14;nan
31225;BME280;17847;31.524;74.366;2024-01-30T10:44:09;98900.88;;;20.14;nan
31225;BME280;17847;31.524;74.366;2024-01-30T10:46:42;98896.75;;;20.06;nan
31225;BME280;17847;31.524;74.366;2024-01-30T10:49:12;98897.81;;;20.05;nan
31225;BME280;17847;31.524;74.366;2024-01-30T10:51:44;98908.09;;;20.08;nan
31225;BME280;17847;31.524;74.366;2024-01-30T10:54:15;98900.41;;;20.00;nan
31225;BME280;17847;31.524;74.366;2024-01-30T10:56:46;98909.41;;;19.89;nan
31225;BME280;17847;31.524;74.366;2024-01-30T10:59:16;98905.47;;;19.97;nan
31225;BME280;17847;31.524;74.366;2024-01-30T11:01:46;98912.03;;;19.84;nan
31225;BME280;17847;31.524;74.366;2024-01-30T11:04:16;98904.19;;;19.83;nan
31225;BME280;17847;31.524;74.366;2024-01-30T11:06:45;98902.53;;;19.77;nan
31225;BME280;17847;31.524;74.366;2024-01-30T11:09:19;98901.88;;;19.69;nan
31225;BME280;17847;31.524;74.366;2024-01-30T11:12:12;98899.44;;;19.68;nan
31225;BME280;17847;31.524;74.366;2024-01-30T11:14:41;98909.78;;;19.59;nan
31225;BME280;17847;31.524;74.366;2024-01-30T11:17:12;98912.47;;;19.59;nan
31225;BME280;17847;31.524;74.366;2024-01-30T11:19:41;98910.13;;;19.46;nan
31225;BME280;17847;31.524;74.366;2024-01-30T11:22:11;98914.69;;;19.46;nan
31225;BME280;17847;31.524;74.366;2024-01-30T11:24:41;98911.72;;;19.47;nan
31225;BME280;17847;31.524;74.366;2024-01-30T11:27:11;98912.47;;;19.43;nan
31225;BME280;17847;31.524;74.366;2024-01-30T11:29:40;98908.28;;;19.35;nan
31225;BME280;17847;31.524;74.366;2024-01-30T11:32:09;98910.81;;;19.25;nan
31225;BME280;17847;31.524;74.366;2024-01-30T11:34:41;98912.66;;;19.08;nan
31225;BME280;17847;31.524;74.366;2024-01-30T11:37:12;98919.53;;;19.15;nan
31225;BME280;17847;31.524;74.366;2024-01-30T11:39:44;98933.28;;;19.19;nan
31225;BME280;17847;31.524;74.366;2024-01-30T11:42:15;98924.19;;;18.92;nan
31225;BME280;17847;31.524;74.366;2024-01-30T11:44:47;98915.41;;;18.96;nan
31225;BME280;17847;31.524;74.366;2024-01-30T11:47:17;98922.94;;;18.82;nan
31225;BME280;17847;31.524;74.366;2024-01-30T11:49:46;98931.69;;;18.90;nan
31225;BME280;17847;31.524;74.366;2024-01-30T11:52:16;98935.69;;;18.75;nan
31225;BME280;17847;31.524;74.366;2024-01-30T11:54:46;98939.31;;;18.69;nan
31225;BME280;17847;31.524;74.366;2024-01-30T11:57:15;98944.59;;;18.64;nan
31225;BME280;17847;31.524;74.366;2024-01-30T11:59:45;98945.81;;;18.45;nan
31225;BME280;17847;31.524;74.366;2024-01-30T12:02:17;98946.25;;;18.42;nan
31225;BME280;17847;31.524;74.366;2024-01-30T12:04:47;98952.59;;;18.36;nan
31225;BME280;17847;31.524;74.366;2024-01-30T12:07:16;98959.91;;;18.29;nan
31225;BME280;17847;31.524;74.366;2024-01-30T12:09:55;98960.28;;;18.21;nan
31225;BME280;17847;31.524;74.366;2024-01-30T12:12:25;98953.75;;;18.17;nan
31225;BME280;17847;31.524;74.366;2024-01-30T12:14:56;98957.84;;;18.08;nan
31225;BME280;17847;31.524;74.366;2024-01-30T12:17:32;98947.72;;;18.10;nan
31225;BME280;17847;31.524;74.366;2024-01-30T12:20:08;98937.84;;;17.87;nan
31225;BME280;17847;31.524;74.366;2024-01-30T12:22:40;98928.50;;;17.89;nan
31225;BME280;17847;31.524;74.366;2024-01-30T12:25:15;98938.06;;;17.85;nan
31225;BME280;17847;31.524;74.366;2024-01-30T12:27:47;98967.78;;;17.95;nan
31225;BME280;17847;31.524;74.366;2024-01-30T12:30:20;98966.59;;;18.03;nan
31225;BME280;17847;31.524;74.366;2024-01-30T12:32:50;98984.06;;;18.06;nan
31225;BME280;17847;31.524;74.366;2024-01-30T12:35:20;98990.38;;;18.00;nan
31225;BME280;17847;31.524;74.366;2024-01-30T12:37:50;98974.78;;;17.97;nan
31225;BME280;17847;31.524;74.366;2024-01-30T12:40:20;98956.34;;;17.88;nan
31225;BME280;17847;31.524;74.366;2024-01-30T12:42:49;98926.41;;;17.80;nan
31225;BME280;17847;31.524;74.366;2024-01-30T12:45:19;98911.38;;;17.67;nan
31225;BME280;17847;31.524;74.366;2024-01-30T12:47:51;98916.25;;;17.70;nan
31225;BME280;17847;31.524;74.366;2024-01-30T12:50:20;98935.38;;;17.74;nan
31225;BME280;17847;31.524;74.366;2024-01-30T12:52:51;98944.47;;;17.73;nan
31225;BME280;17847;31.524;74.366;2024-01-30T12:55:20;98962.97;;;17.63;nan
31225;BME280;17847;31.524;74.366;2024-01-30T12:57:50;98958.31;;;17.58;nan
31225;BME280;17847;31.524;74.366;2024-01-30T13:00:20;98957.09;;;17.54;nan
31225;BME280;17847;31.524;74.366;2024-01-30T13:02:49;98934.78;;;17.60;nan
31225;BME280;17847;31.524;74.366;2024-01-30T13:05:18;98928.84;;;17.58;nan
31225;BME280;17847;31.524;74.366;2024-01-30T13:07:48;98920.38;;;17.61;nan
31225;BME280;17847;31.524;74.366;2024-01-30T13:10:17;98925.53;;;17.33;nan
31225;BME280;17847;31.524;74.366;2024-01-30T13:12:47;98932.88;;;17.37;nan
31225;BME280;17847;31.524;74.366;2024-01-30T13:15:16;98940.22;;;17.42;nan
31225;BME280;17847;31.524;74.366;2024-01-30T13:17:46;98943.94;;;17.41;nan
31225;BME280;17847;31.524;74.366;2024-01-30T13:20:17;98959.28;;;17.34;nan
31225;BME280;17847;31.524;74.366;2024-01-30T13:22:49;98971.59;;;17.35;nan
31225;BME280;17847;31.524;74.366;2024-01-30T13:25:19;98980.84;;;17.39;nan